sensor_id;sensor_type;location;lat;lon;timestamp;temperature;humidity
19646;DHT22;9971;52.446;13.452;2023-03-24T00:02:08;11.80;99.90
19646;DHT22;9971;52.446;13.452;2023-03-24T00:07:11;11.90;99.90
19646;DHT22;9971;52.446;13.452;2023-03-24T00:12:13;11.80;99.90
19646;DHT22;9971;52.446;13.452;2023-03-24T00:17:15;11.80;99.90
19646;DHT22;9971;52.446;13.452;2023-03-24T00:22:18;11.80;99.90
19646;DHT22;9971;52.446;13.452;2023-03-24T00:27:20;11.80;99.90
19646;DHT22;9971;52.446;13.452;2023-03-24T00:32:24;11.80;99.90
19646;DHT22;9971;52.446;13.452;2023-03-24T00:37:26;11.70;99.90
19646;DHT22;9971;52.446;13.452;2023-03-24T00:42:31;11.80;99.90
19646;DHT22;9971;52.446;13.452;2023-03-24T00:47:31;11.80;99.90
19646;DHT22;9971;52.446;13.452;2023-03-24T00:52:33;11.80;99.90
19646;DHT22;9971;52.446;13.452;2023-03-24T00:57:35;11.80;99.90
19646;DHT22;9971;52.446;13.452;2023-03-24T01:02:38;11.80;99.90
19646;DHT22;9971;52.446;13.452;2023-03-24T01:07:40;11.80;99.90
19646;DHT22;9971;52.446;13.452;2023-03-24T01:12:43;11.80;99.90
19646;DHT22;9971;52.446;13.452;2023-03-24T01:17:45;11.90;99.90
19646;DHT22;9971;52.446;13.452;2023-03-24T01:22:48;11.90;99.90
19646;DHT22;9971;52.446;13.452;2023-03-24T01:27:50;11.90;99.90
19646;DHT22;9971;52.446;13.452;2023-03-24T01:32:52;11.90;99.90
19646;DHT22;9971;52.446;13.452;2023-03-24T01:37:54;12.00;99.90
19646;DHT22;9971;52.446;13.452;2023-03-24T01:42:57;12.00;99.90
19646;DHT22;9971;52.446;13.452;2023-03-24T01:47:58;12.00;99.90
19646;DHT22;9971;52.446;13.452;2023-03-24T01:53:01;12.00;99.90
19646;DHT22;9971;52.446;13.452;2023-03-24T01:58:03;12.00;99.90
19646;DHT22;9971;52.446;13.452;2023-03-24T02:03:09;12.00;99.90
19646;DHT22;9971;52.446;13.452;2023-03-24T02:08:16;12.00;99.90
19646;DHT22;9971;52.446;13.452;2023-03-24T02:13:17;12.00;99.90
19646;DHT22;9971;52.446;13.452;2023-03-24T02:18:24;12.10;99.90
19646;DHT22;9971;52.446;13.452;2023-03-24T02:23:37;12.10;99.90
19646;DHT22;9971;52.446;13.452;2023-03-24T02:28:56;12.20;99.90
19646;DHT22;9971;52.446;13.452;2023-03-24T02:34:06;12.20;99.90
19646;DHT22;9971;52.446;13.452;2023-03-24T02:39:16;12.30;99.90
19646;DHT22;9971;52.446;13.452;2023-03-24T02:44:20;12.30;99.90
19646;DHT22;9971;52.446;13.452;2023-03-24T02:49:26;12.40;99.90
19646;DHT22;9971;52.446;13.452;2023-03-24T02:54:46;12.50;99.90
19646;DHT22;9971;52.446;13.452;2023-03-24T02:59:52;12.50;99.90
19646;DHT22;9971;52.446;13.452;2023-03-24T03:04:55;12.60;99.90
19646;DHT22;9971;52.446;13.452;2023-03-24T03:09:59;12.50;99.90
19646;DHT22;9971;52.446;13.452;2023-03-24T03:15:04;12.50;99.90
19646;DHT22;9971;52.446;13.452;2023-03-24T03:20:07;12.50;99.90
19646;DHT22;9971;52.446;13.452;2023-03-24T03:25:09;12.50;99.90
19646;DHT22;9971;52.446;13.452;2023-03-24T03:30:15;12.40;99.90
19646;DHT22;9971;52.446;13.452;2023-03-24T03:35:19;12.40;99.90
19646;DHT22;9971;52.446;13.452;2023-03-24T03:40:21;12.40;99.90
19646;DHT22;9971;52.446;13.452;2023-03-24T03:45:21;12.30;99.90
19646;DHT22;9971;52.446;13.452;2023-03-24T03:50:25;12.40;99.90
19646;DHT22;9971;52.446;13.452;2023-03-24T03:55:27;12.40;99.90
19646;DHT22;9971;52.446;13.452;2023-03-24T04:00:29;12.40;99.90
19646;DHT22;9971;52.446;13.452;2023-03-24T04:05:34;12.40;99.90
19646;DHT22;9971;52.446;13.452;2023-03-24T04:10:42;12.40;99.90
19646;DHT22;9971;52.446;13.452;2023-03-24T04:21:22;12.40;99.90
19646;DHT22;9971;52.446;13.452;2023-03-24T04:26:23;12.40;99.90
19646;DHT22;9971;52.446;13.452;2023-03-24T04:31:38;12.50;99.90
19646;DHT22;9971;52.446;13.452;2023-03-24T04:36:40;12.50;99.90
19646;DHT22;9971;52.446;13.452;2023-03-24T04:41:44;12.50;99.90
19646;DHT22;9971;52.446;13.452;2023-03-24T04:46:47;12.50;99.90
19646;DHT22;9971;52.446;13.452;2023-03-24T04:51:49;12.50;99.90
19646;DHT22;9971;52.446;13.452;2023-03-24T04:56:51;12.60;99.90
19646;DHT22;9971;52.446;13.452;2023-03-24T05:01:53;12.70;99.90
19646;DHT22;9971;52.446;13.452;2023-03-24T05:06:55;12.70;99.90
19646;DHT22;9971;52.446;13.452;2023-03-24T05:11:58;12.80;99.90
19646;DHT22;9971;52.446;13.452;2023-03-24T05:17:00;12.80;99.90
19646;DHT22;9971;52.446;13.452;2023-03-24T05:22:03;12.80;99.90
19646;DHT22;9971;52.446;13.452;2023-03-24T05:27:05;12.90;99.90
19646;DHT22;9971;52.446;13.452;2023-03-24T05:32:08;13.00;99.90
19646;DHT22;9971;52.446;13.452;2023-03-24T05:37:11;13.10;99.90
19646;DHT22;9971;52.446;13.452;2023-03-24T05:42:13;13.20;99.90
19646;DHT22;9971;52.446;13.452;2023-03-24T05:47:15;13.30;99.90
19646;DHT22;9971;52.446;13.452;2023-03-24T05:52:17;13.40;99.90
19646;DHT22;9971;52.446;13.452;2023-03-24T05:57:19;13.50;99.90
19646;DHT22;9971;52.446;13.452;2023-03-24T06:02:21;13.50;99.90
19646;DHT22;9971;52.446;13.452;2023-03-24T06:07:23;13.50;99.90
19646;DHT22;9971;52.446;13.452;2023-03-24T06:12:25;13.60;99.90
19646;DHT22;9971;52.446;13.452;2023-03-24T06:17:28;13.60;99.90
19646;DHT22;9971;52.446;13.452;2023-03-24T06:22:31;13.60;99.90
19646;DHT22;9971;52.446;13.452;2023-03-24T06:27:33;13.60;99.90
19646;DHT22;9971;52.446;13.452;2023-03-24T06:32:35;13.60;99.90
19646;DHT22;9971;52.446;13.452;2023-03-24T06:37:38;13.70;99.90
19646;DHT22;9971;52.446;13.452;2023-03-24T06:42:40;13.80;99.90
19646;DHT22;9971;52.446;13.452;2023-03-24T06:47:42;13.80;99.90
19646;DHT22;9971;52.446;13.452;2023-03-24T06:52:45;13.90;99.90
19646;DHT22;9971;52.446;13.452;2023-03-24T06:57:47;14.00;99.90
19646;DHT22;9971;52.446;13.452;2023-03-24T07:02:51;14.00;99.90
19646;DHT22;9971;52.446;13.452;2023-03-24T07:07:54;14.10;99.90
19646;DHT22;9971;52.446;13.452;2023-03-24T07:12:56;14.10;99.90
19646;DHT22;9971;52.446;13.452;2023-03-24T07:17:58;14.20;99.90
19646;DHT22;9971;52.446;13.452;2023-03-24T07:23:02;14.30;99.90
19646;DHT22;9971;52.446;13.452;2023-03-24T07:28:04;14.30;99.90
19646;DHT22;9971;52.446;13.452;2023-03-24T07:33:06;14.40;99.90
19646;DHT22;9971;52.446;13.452;2023-03-24T07:38:08;14.40;99.90
19646;DHT22;9971;52.446;13.452;2023-03-24T07:43:10;14.50;99.90
19646;DHT22;9971;52.446;13.452;2023-03-24T07:48:13;14.70;99.90
19646;DHT22;9971;52.446;13.452;2023-03-24T07:53:15;14.70;99.90
19646;DHT22;9971;52.446;13.452;2023-03-24T07:58:18;14.80;99.90
19646;DHT22;9971;52.446;13.452;2023-03-24T08:03:20;14.80;99.90
19646;DHT22;9971;52.446;13.452;2023-03-24T08:08:23;14.70;99.90
19646;DHT22;9971;52.446;13.452;2023-03-24T08:13:25;14.60;99.90
19646;DHT22;9971;52.446;13.452;2023-03-24T08:18:28;14.60;99.90
19646;DHT22;9971;52.446;13.452;2023-03-24T08:23:30;14.50;99.90
19646;DHT22;9971;52.446;13.452;2023-03-24T08:28:32;14.40;99.90
19646;DHT22;9971;52.446;13.452;2023-03-24T08:33:34;14.30;99.90
19646;DHT22;9971;52.446;13.452;2023-03-24T08:38:36;14.30;99.90
19646;DHT22;9971;52.446;13.452;2023-03-24T08:43:39;14.30;99.90
19646;DHT22;9971;52.446;13.452;2023-03-24T08:48:42;14.30;99.90
19646;DHT22;9971;52.446;13.452;2023-03-24T08:53:44;14.30;99.90
19646;DHT22;9971;52.446;13.452;2023-03-24T08:58:46;14.30;99.90
19646;DHT22;9971;52.446;13.452;2023-03-24T09:03:48;14.30;99.90
19646;DHT22;9971;52.446;13.452;2023-03-24T09:08:50;14.30;99.90
19646;DHT22;9971;52.446;13.452;2023-03-24T09:13:52;14.40;99.90
19646;DHT22;9971;52.446;13.452;2023-03-24T09:18:55;14.40;99.90
19646;DHT22;9971;52.446;13.452;2023-03-24T09:23:57;14.50;99.90
19646;DHT22;9971;52.446;13.452;2023-03-24T09:28:59;14.50;99.90
19646;DHT22;9971;52.446;13.452;2023-03-24T09:34:02;14.60;99.90
19646;DHT22;9971;52.446;13.452;2023-03-24T09:39:05;14.60;99.90
19646;DHT22;9971;52.446;13.452;2023-03-24T09:44:21;14.70;99.90
19646;DHT22;9971;52.446;13.452;2023-03-24T09:49:22;14.90;99.90
19646;DHT22;9971;52.446;13.452;2023-03-24T09:54:30;15.20;99.90
19646;DHT22;9971;52.446;13.452;2023-03-24T09:59:34;15.50;99.90
19646;DHT22;9971;52.446;13.452;2023-03-24T10:04:36;15.70;99.90
19646;DHT22;9971;52.446;13.452;2023-03-24T10:09:39;15.80;99.90
19646;DHT22;9971;52.446;13.452;2023-03-24T10:15:01;15.90;99.90
19646;DHT22;9971;52.446;13.452;2023-03-24T10:20:04;15.90;99.90
19646;DHT22;9971;52.446;13.452;2023-03-24T10:25:13;15.80;99.90
19646;DHT22;9971;52.446;13.452;2023-03-24T10:30:16;15.80;99.90
19646;DHT22;9971;52.446;13.452;2023-03-24T10:35:18;15.80;99.90
19646;DHT22;9971;52.446;13.452;2023-03-24T10:40:21;15.80;99.90
19646;DHT22;9971;52.446;13.452;2023-03-24T10:45:25;16.10;99.90
19646;DHT22;9971;52.446;13.452;2023-03-24T10:50:27;16.30;99.90
19646;DHT22;9971;52.446;13.452;2023-03-24T10:55:29;16.50;99.90
19646;DHT22;9971;52.446;13.452;2023-03-24T11:00:30;16.70;99.90
19646;DHT22;9971;52.446;13.452;2023-03-24T11:05:34;16.70;99.90
19646;DHT22;9971;52.446;13.452;2023-03-24T11:10:35;16.70;99.90
19646;DHT22;9971;52.446;13.452;2023-03-24T11:15:37;16.70;99.90
19646;DHT22;9971;52.446;13.452;2023-03-24T11:20:45;16.70;99.90
19646;DHT22;9971;52.446;13.452;2023-03-24T11:25:47;16.70;99.90
19646;DHT22;9971;52.446;13.452;2023-03-24T11:30:51;16.80;99.90
19646;DHT22;9971;52.446;13.452;2023-03-24T11:35:53;17.00;99.90
19646;DHT22;9971;52.446;13.452;2023-03-24T11:40:58;17.10;99.90
19646;DHT22;9971;52.446;13.452;2023-03-24T11:46:00;17.20;99.90
19646;DHT22;9971;52.446;13.452;2023-03-24T11:51:02;17.40;99.90
19646;DHT22;9971;52.446;13.452;2023-03-24T11:56:08;17.40;99.90
19646;DHT22;9971;52.446;13.452;2023-03-24T12:01:25;17.50;99.90
19646;DHT22;9971;52.446;13.452;2023-03-24T12:06:58;17.70;99.90
19646;DHT22;9971;52.446;13.452;2023-03-24T12:12:11;17.70;99.90
19646;DHT22;9971;52.446;13.452;2023-03-24T12:17:20;17.70;99.90
19646;DHT22;9971;52.446;13.452;2023-03-24T12:38:31;17.70;99.90
19646;DHT22;9971;52.446;13.452;2023-03-24T12:49:05;17.50;99.90
19646;DHT22;9971;52.446;13.452;2023-03-24T12:54:40;17.40;99.90
19646;DHT22;9971;52.446;13.452;2023-03-24T12:59:32;17.30;99.90
19646;DHT22;9971;52.446;13.452;2023-03-24T13:04:35;17.30;99.90
19646;DHT22;9971;52.446;13.452;2023-03-24T13:09:56;17.20;99.90
19646;DHT22;9971;52.446;13.452;2023-03-24T13:15:08;17.10;99.90
19646;DHT22;9971;52.446;13.452;2023-03-24T13:20:11;17.10;99.90
19646;DHT22;9971;52.446;13.452;2023-03-24T13:25:28;17.00;99.90
19646;DHT22;9971;52.446;13.452;2023-03-24T13:40:56;16.80;99.90
19646;DHT22;9971;52.446;13.452;2023-03-24T13:46:00;16.80;99.90
19646;DHT22;9971;52.446;13.452;2023-03-24T13:51:12;16.70;99.90
19646;DHT22;9971;52.446;13.452;2023-03-24T13:56:09;16.70;99.90
19646;DHT22;9971;52.446;13.452;2023-03-24T14:06:46;16.80;99.90
19646;DHT22;9971;52.446;13.452;2023-03-24T14:12:07;16.80;99.90
19646;DHT22;9971;52.446;13.452;2023-03-24T14:17:12;16.80;99.90
19646;DHT22;9971;52.446;13.452;2023-03-24T14:22:21;16.80;99.90
19646;DHT22;9971;52.446;13.452;2023-03-24T14:27:43;16.70;99.90
19646;DHT22;9971;52.446;13.452;2023-03-24T14:32:46;16.70;99.90
19646;DHT22;9971;52.446;13.452;2023-03-24T14:37:48;16.70;99.90
19646;DHT22;9971;52.446;13.452;2023-03-24T14:42:52;16.50;99.90
19646;DHT22;9971;52.446;13.452;2023-03-24T14:47:58;16.40;99.90
19646;DHT22;9971;52.446;13.452;2023-03-24T14:53:02;16.50;99.90
19646;DHT22;9971;52.446;13.452;2023-03-24T14:58:08;16.50;99.90
19646;DHT22;9971;52.446;13.452;2023-03-24T15:08:20;16.70;99.90
19646;DHT22;9971;52.446;13.452;2023-03-24T15:13:27;16.80;99.90
19646;DHT22;9971;52.446;13.452;2023-03-24T15:18:29;16.80;99.90
19646;DHT22;9971;52.446;13.452;2023-03-24T15:23:31;16.90;99.90
19646;DHT22;9971;52.446;13.452;2023-03-24T15:28:35;16.90;99.90
19646;DHT22;9971;52.446;13.452;2023-03-24T15:33:38;17.10;99.90
19646;DHT22;9971;52.446;13.452;2023-03-24T15:38:43;17.10;99.90
19646;DHT22;9971;52.446;13.452;2023-03-24T15:43:45;17.10;99.90
19646;DHT22;9971;52.446;13.452;2023-03-24T15:48:46;17.30;99.90
19646;DHT22;9971;52.446;13.452;2023-03-24T15:53:56;17.60;99.90
19646;DHT22;9971;52.446;13.452;2023-03-24T15:59:07;17.80;99.90
19646;DHT22;9971;52.446;13.452;2023-03-24T16:04:10;17.80;99.90
19646;DHT22;9971;52.446;13.452;2023-03-24T16:09:12;17.80;99.90
19646;DHT22;9971;52.446;13.452;2023-03-24T16:14:20;17.80;99.90
19646;DHT22;9971;52.446;13.452;2023-03-24T16:19:21;17.80;99.90
19646;DHT22;9971;52.446;13.452;2023-03-24T16:24:23;17.70;99.90
19646;DHT22;9971;52.446;13.452;2023-03-24T16:29:25;17.40;99.90
19646;DHT22;9971;52.446;13.452;2023-03-24T16:34:28;17.10;99.90
19646;DHT22;9971;52.446;13.452;2023-03-24T16:39:30;16.90;99.90
19646;DHT22;9971;52.446;13.452;2023-03-24T16:44:33;16.80;99.90
19646;DHT22;9971;52.446;13.452;2023-03-24T16:49:35;16.70;99.90
19646;DHT22;9971;52.446;13.452;2023-03-24T16:54:37;16.60;99.90
19646;DHT22;9971;52.446;13.452;2023-03-24T16:59:40;16.60;99.90
19646;DHT22;9971;52.446;13.452;2023-03-24T17:04:44;16.50;99.90
19646;DHT22;9971;52.446;13.452;2023-03-24T17:09:46;16.30;99.90
19646;DHT22;9971;52.446;13.452;2023-03-24T17:39:48;16.20;99.90
19646;DHT22;9971;52.446;13.452;2023-03-24T17:44:51;17.40;99.90
19646;DHT22;9971;52.446;13.452;2023-03-24T17:49:53;16.30;99.90
19646;DHT22;9971;52.446;13.452;2023-03-24T17:54:55;15.60;99.90
19646;DHT22;9971;52.446;13.452;2023-03-24T17:59:58;15.10;99.90
19646;DHT22;9971;52.446;13.452;2023-03-24T18:05:00;14.90;99.90
19646;DHT22;9971;52.446;13.452;2023-03-24T18:10:03;14.70;99.90
19646;DHT22;9971;52.446;13.452;2023-03-24T18:40:06;14.60;99.90
19646;DHT22;9971;52.446;13.452;2023-03-24T18:45:09;16.40;99.90
19646;DHT22;9971;52.446;13.452;2023-03-24T18:50:11;15.00;99.90
19646;DHT22;9971;52.446;13.452;2023-03-24T18:55:13;14.30;99.90
19646;DHT22;9971;52.446;13.452;2023-03-24T19:00:16;13.90;99.90
19646;DHT22;9971;52.446;13.452;2023-03-24T19:05:18;13.60;99.90
19646;DHT22;9971;52.446;13.452;2023-03-24T19:10:21;13.40;99.90
19646;DHT22;9971;52.446;13.452;2023-03-24T19:15:24;13.30;99.90
19646;DHT22;9971;52.446;13.452;2023-03-24T19:20:26;13.20;99.90
19646;DHT22;9971;52.446;13.452;2023-03-24T19:25:28;13.10;99.90
19646;DHT22;9971;52.446;13.452;2023-03-24T19:30:30;13.00;99.90
19646;DHT22;9971;52.446;13.452;2023-03-24T19:35:33;13.10;99.90
19646;DHT22;9971;52.446;13.452;2023-03-24T19:40:35;13.10;99.90
19646;DHT22;9971;52.446;13.452;2023-03-24T19:45:38;13.10;99.90
19646;DHT22;9971;52.446;13.452;2023-03-24T19:50:42;13.00;99.90
19646;DHT22;9971;52.446;13.452;2023-03-24T19:55:43;12.90;99.90
19646;DHT22;9971;52.446;13.452;2023-03-24T20:00:46;12.80;99.90
19646;DHT22;9971;52.446;13.452;2023-03-24T20:05:48;12.70;99.90
19646;DHT22;9971;52.446;13.452;2023-03-24T20:10:50;12.70;99.90
19646;DHT22;9971;52.446;13.452;2023-03-24T20:15:53;12.70;99.90
19646;DHT22;9971;52.446;13.452;2023-03-24T20:45:56;12.60;99.90
19646;DHT22;9971;52.446;13.452;2023-03-24T20:50:57;14.80;99.90
19646;DHT22;9971;52.446;13.452;2023-03-24T20:56:01;13.80;99.90
19646;DHT22;9971;52.446;13.452;2023-03-24T21:01:04;13.30;99.90
19646;DHT22;9971;52.446;13.452;2023-03-24T21:06:06;12.90;99.90
19646;DHT22;9971;52.446;13.452;2023-03-24T21:11:08;12.80;99.90
19646;DHT22;9971;52.446;13.452;2023-03-24T21:16:10;12.60;99.90
19646;DHT22;9971;52.446;13.452;2023-03-24T21:21:12;12.50;99.90
19646;DHT22;9971;52.446;13.452;2023-03-24T21:26:14;12.40;99.90
19646;DHT22;9971;52.446;13.452;2023-03-24T21:31:17;12.40;99.90
19646;DHT22;9971;52.446;13.452;2023-03-24T21:36:17;12.40;99.90
19646;DHT22;9971;52.446;13.452;2023-03-24T21:41:20;12.40;99.90
19646;DHT22;9971;52.446;13.452;2023-03-24T21:46:22;12.30;99.90
19646;DHT22;9971;52.446;13.452;2023-03-24T21:51:25;12.30;99.90
19646;DHT22;9971;52.446;13.452;2023-03-24T21:56:26;12.30;99.90
19646;DHT22;9971;52.446;13.452;2023-03-24T22:01:29;12.20;99.90
19646;DHT22;9971;52.446;13.452;2023-03-24T22:06:31;12.10;99.90
19646;DHT22;9971;52.446;13.452;2023-03-24T22:11:33;12.00;99.90
19646;DHT22;9971;52.446;13.452;2023-03-24T22:16:36;12.00;99.90
19646;DHT22;9971;52.446;13.452;2023-03-24T22:21:38;11.90;99.90
19646;DHT22;9971;52.446;13.452;2023-03-24T22:26:40;11.70;99.90
19646;DHT22;9971;52.446;13.452;2023-03-24T22:31:43;11.70;99.90
19646;DHT22;9971;52.446;13.452;2023-03-24T22:36:45;11.60;99.90
19646;DHT22;9971;52.446;13.452;2023-03-24T22:41:48;11.60;99.90
19646;DHT22;9971;52.446;13.452;2023-03-24T22:46:50;11.50;99.90
19646;DHT22;9971;52.446;13.452;2023-03-24T22:51:53;11.40;99.90
19646;DHT22;9971;52.446;13.452;2023-03-24T22:56:55;11.40;99.90
19646;DHT22;9971;52.446;13.452;2023-03-24T23:01:57;11.30;99.90
19646;DHT22;9971;52.446;13.452;2023-03-24T23:06:59;11.30;99.90
19646;DHT22;9971;52.446;13.452;2023-03-24T23:12:02;11.20;99.90
19646;DHT22;9971;52.446;13.452;2023-03-24T23:17:04;11.20;99.90
19646;DHT22;9971;52.446;13.452;2023-03-24T23:22:06;11.10;99.90
19646;DHT22;9971;52.446;13.452;2023-03-24T23:27:09;11.10;99.90
19646;DHT22;9971;52.446;13.452;2023-03-24T23:32:11;11.00;99.90
19646;DHT22;9971;52.446;13.452;2023-03-24T23:37:13;10.90;99.90
19646;DHT22;9971;52.446;13.452;2023-03-24T23:42:15;10.90;99.90
19646;DHT22;9971;52.446;13.452;2023-03-24T23:47:18;10.80;99.90
19646;DHT22;9971;52.446;13.452;2023-03-24T23:52:20;10.80;99.90
19646;DHT22;9971;52.446;13.452;2023-03-24T23:57:22;10.70;99.90
